< Typhoon 197209 1972 Season Typhoon 197211 >
Typhoon 197210 (VIOLA)
General InformationTrack Information on Google Maps || Disaster Info.ResourceGoogle EarthGE AnimationAtom FeedGeoJSON
Detalied Best Track (Time Zone = UTC)
Year Month Day Hour Lat. Long. Pressure (hPa) Wind (kt) Class Image Chart
1972 7 19 18 11.3 164.8 1004 0 2 -- Chart
1972 7 20 00 11.6 165.1 1004 0 2 -- Chart
1972 7 20 06 12.0 165.0 1004 0 2 -- Chart
1972 7 20 12 12.1 164.5 1004 0 2 -- Chart
1972 7 20 18 12.1 164.0 1006 0 2 -- Chart
1972 7 21 00 12.2 163.1 1004 0 2 -- Chart
1972 7 21 06 12.5 162.0 1004 0 2 -- Chart
1972 7 21 12 12.8 161.2 1004 0 2 -- Chart
1972 7 21 18 13.5 160.2 1004 0 2 -- Chart
1972 7 22 00 14.3 159.6 1004 0 2 -- Chart
1972 7 22 06 15.1 159.1 1004 0 2 -- Chart
1972 7 22 12 15.8 158.7 1004 0 2 -- Chart
1972 7 22 18 16.7 158.4 1004 0 2 -- Chart
1972 7 23 00 17.7 158.1 1004 0 2 -- Chart
1972 7 23 06 18.6 158.0 1004 0 2 -- Chart
1972 7 23 12 19.5 158.0 1004 0 2 -- Chart
1972 7 23 18 20.5 158.0 1004 0 2 -- Chart
1972 7 24 00 21.6 158.5 1004 0 2 -- Chart
1972 7 24 06 22.5 158.9 1000 0 2 -- Chart
1972 7 24 12 23.9 159.8 998 0 2 -- Chart
1972 7 24 18 24.4 161.5 990 0 9 -- Chart
1972 7 25 00 24.6 163.0 985 0 9 -- Chart
1972 7 25 06 25.3 164.3 975 0 9 -- Chart
1972 7 25 12 27.6 166.6 980 0 9 -- Chart
1972 7 25 18 29.5 168.2 980 0 9 -- Chart
1972 7 26 00 31.5 169.4 980 0 9 -- Chart
1972 7 26 06 33.9 169.9 985 0 9 -- Chart
1972 7 26 12 35.7 169.7 985 0 9 -- Chart
1972 7 26 18 37.5 169.0 990 0 9 -- Chart
1972 7 27 00 39.1 168.0 990 0 9 -- Chart
1972 7 27 06 40.6 166.6 992 0 9 -- Chart
1972 7 27 12 42.0 165.2 996 0 9 -- Chart
1972 7 27 18 43.3 163.9 1000 0 6 -- Chart
1972 7 28 00 44.0 163.1 1004 0 6 -- Chart
1972 7 28 06 44.4 162.4 1008 0 6 -- Chart
1972 7 28 12 44.7 161.8 1012 0 6 -- Chart
Japan Meteorological Agency Best Track Data | Correction Date : 1989-06-01
< Typhoon 197209 1972 Season Typhoon 197211 >

Help